sensor_id;sensor_type;location;lat;lon;timestamp;temperature;humidity
57218;DHT22;43078;52.972;6.482;2023-08-06T00:00:06;16.40;99.90
57218;DHT22;43078;52.972;6.482;2023-08-06T00:02:31;16.40;99.90
57218;DHT22;43078;52.972;6.482;2023-08-06T00:04:57;16.40;99.90
57218;DHT22;43078;52.972;6.482;2023-08-06T00:07:23;16.40;99.90
57218;DHT22;43078;52.972;6.482;2023-08-06T00:09:48;16.40;99.90
57218;DHT22;43078;52.972;6.482;2023-08-06T00:12:14;16.30;99.90
57218;DHT22;43078;52.972;6.482;2023-08-06T00:14:39;16.30;99.90
57218;DHT22;43078;52.972;6.482;2023-08-06T00:17:05;16.30;99.90
57218;DHT22;43078;52.972;6.482;2023-08-06T00:19:31;16.30;99.90
57218;DHT22;43078;52.972;6.482;2023-08-06T00:21:57;16.30;99.90
57218;DHT22;43078;52.972;6.482;2023-08-06T00:24:23;16.30;99.90
57218;DHT22;43078;52.972;6.482;2023-08-06T00:26:49;16.30;99.90
57218;DHT22;43078;52.972;6.482;2023-08-06T00:29:14;16.30;99.90
57218;DHT22;43078;52.972;6.482;2023-08-06T00:31:40;16.30;99.90
57218;DHT22;43078;52.972;6.482;2023-08-06T00:34:06;16.30;99.90
57218;DHT22;43078;52.972;6.482;2023-08-06T00:36:31;16.20;99.90
57218;DHT22;43078;52.972;6.482;2023-08-06T00:38:57;16.20;99.90
57218;DHT22;43078;52.972;6.482;2023-08-06T00:41:22;16.20;99.90
57218;DHT22;43078;52.972;6.482;2023-08-06T00:43:48;16.20;99.90
57218;DHT22;43078;52.972;6.482;2023-08-06T00:46:14;16.20;99.90
57218;DHT22;43078;52.972;6.482;2023-08-06T00:48:41;16.20;99.90
57218;DHT22;43078;52.972;6.482;2023-08-06T00:51:08;16.20;99.90
57218;DHT22;43078;52.972;6.482;2023-08-06T00:53:35;16.20;99.90
57218;DHT22;43078;52.972;6.482;2023-08-06T00:56:01;16.10;99.90
57218;DHT22;43078;52.972;6.482;2023-08-06T00:58:27;16.10;99.90
57218;DHT22;43078;52.972;6.482;2023-08-06T01:00:53;16.10;99.90
57218;DHT22;43078;52.972;6.482;2023-08-06T01:03:19;16.10;99.90
57218;DHT22;43078;52.972;6.482;2023-08-06T01:05:44;16.10;99.90
57218;DHT22;43078;52.972;6.482;2023-08-06T01:13:47;16.10;99.90
57218;DHT22;43078;52.972;6.482;2023-08-06T01:16:18;16.00;99.90
57218;DHT22;43078;52.972;6.482;2023-08-06T01:18:47;16.00;99.90
57218;DHT22;43078;52.972;6.482;2023-08-06T01:21:15;16.00;99.90
57218;DHT22;43078;52.972;6.482;2023-08-06T01:23:42;16.00;99.90
57218;DHT22;43078;52.972;6.482;2023-08-06T01:26:30;16.00;99.90
57218;DHT22;43078;52.972;6.482;2023-08-06T01:29:14;16.00;99.90
57218;DHT22;43078;52.972;6.482;2023-08-06T01:31:43;16.00;99.90
57218;DHT22;43078;52.972;6.482;2023-08-06T01:34:17;16.00;99.90
57218;DHT22;43078;52.972;6.482;2023-08-06T01:36:43;16.00;99.90
57218;DHT22;43078;52.972;6.482;2023-08-06T01:39:10;16.00;99.90
57218;DHT22;43078;52.972;6.482;2023-08-06T01:41:35;16.00;99.90
57218;DHT22;43078;52.972;6.482;2023-08-06T01:44:01;16.00;99.90
57218;DHT22;43078;52.972;6.482;2023-08-06T01:46:27;16.00;99.90
57218;DHT22;43078;52.972;6.482;2023-08-06T01:48:52;16.00;99.90
57218;DHT22;43078;52.972;6.482;2023-08-06T01:51:18;16.00;99.90
57218;DHT22;43078;52.972;6.482;2023-08-06T01:53:44;16.00;99.90
57218;DHT22;43078;52.972;6.482;2023-08-06T01:56:09;16.00;99.90
57218;DHT22;43078;52.972;6.482;2023-08-06T01:58:35;15.90;99.90
57218;DHT22;43078;52.972;6.482;2023-08-06T02:01:01;15.90;99.90
57218;DHT22;43078;52.972;6.482;2023-08-06T02:03:27;15.90;99.90
57218;DHT22;43078;52.972;6.482;2023-08-06T02:05:53;15.90;99.90
57218;DHT22;43078;52.972;6.482;2023-08-06T02:08:18;15.90;99.90
57218;DHT22;43078;52.972;6.482;2023-08-06T02:10:45;16.00;99.90
57218;DHT22;43078;52.972;6.482;2023-08-06T02:13:10;15.90;99.90
57218;DHT22;43078;52.972;6.482;2023-08-06T02:15:42;15.90;99.90
57218;DHT22;43078;52.972;6.482;2023-08-06T02:18:07;15.90;99.90
57218;DHT22;43078;52.972;6.482;2023-08-06T02:20:33;15.90;99.90
57218;DHT22;43078;52.972;6.482;2023-08-06T02:22:59;15.90;99.90
57218;DHT22;43078;52.972;6.482;2023-08-06T02:25:24;15.80;99.90
57218;DHT22;43078;52.972;6.482;2023-08-06T02:27:50;15.80;99.90
57218;DHT22;43078;52.972;6.482;2023-08-06T02:30:15;15.80;99.90
57218;DHT22;43078;52.972;6.482;2023-08-06T02:32:41;15.80;99.90
57218;DHT22;43078;52.972;6.482;2023-08-06T02:35:07;15.80;99.90
57218;DHT22;43078;52.972;6.482;2023-08-06T02:37:36;15.80;99.90
57218;DHT22;43078;52.972;6.482;2023-08-06T02:40:01;15.80;99.90
57218;DHT22;43078;52.972;6.482;2023-08-06T02:42:27;15.80;99.90
57218;DHT22;43078;52.972;6.482;2023-08-06T02:44:53;15.80;99.90
57218;DHT22;43078;52.972;6.482;2023-08-06T02:47:20;15.70;99.90
57218;DHT22;43078;52.972;6.482;2023-08-06T02:49:46;15.80;99.90
57218;DHT22;43078;52.972;6.482;2023-08-06T02:52:12;15.80;99.90
57218;DHT22;43078;52.972;6.482;2023-08-06T02:54:38;15.80;99.90
57218;DHT22;43078;52.972;6.482;2023-08-06T02:57:04;15.70;99.90
57218;DHT22;43078;52.972;6.482;2023-08-06T02:59:31;15.70;99.90
57218;DHT22;43078;52.972;6.482;2023-08-06T03:01:56;15.70;99.90
57218;DHT22;43078;52.972;6.482;2023-08-06T03:04:22;15.70;99.90
57218;DHT22;43078;52.972;6.482;2023-08-06T03:06:49;15.70;99.90
57218;DHT22;43078;52.972;6.482;2023-08-06T03:09:16;15.70;99.90
57218;DHT22;43078;52.972;6.482;2023-08-06T03:11:41;15.70;99.90
57218;DHT22;43078;52.972;6.482;2023-08-06T03:14:07;15.70;99.90
57218;DHT22;43078;52.972;6.482;2023-08-06T03:16:33;15.70;99.90
57218;DHT22;43078;52.972;6.482;2023-08-06T03:18:58;15.70;99.90
57218;DHT22;43078;52.972;6.482;2023-08-06T03:21:24;15.70;99.90
57218;DHT22;43078;52.972;6.482;2023-08-06T03:23:50;15.60;99.90
57218;DHT22;43078;52.972;6.482;2023-08-06T03:26:15;15.60;99.90
57218;DHT22;43078;52.972;6.482;2023-08-06T03:28:41;15.60;99.90
57218;DHT22;43078;52.972;6.482;2023-08-06T03:31:07;15.60;99.90
57218;DHT22;43078;52.972;6.482;2023-08-06T03:33:32;15.60;99.90
57218;DHT22;43078;52.972;6.482;2023-08-06T03:35:58;15.60;99.90
57218;DHT22;43078;52.972;6.482;2023-08-06T03:38:23;15.60;99.90
57218;DHT22;43078;52.972;6.482;2023-08-06T03:40:49;15.60;99.90
57218;DHT22;43078;52.972;6.482;2023-08-06T03:43:15;15.60;99.90
57218;DHT22;43078;52.972;6.482;2023-08-06T03:45:41;15.60;99.90
57218;DHT22;43078;52.972;6.482;2023-08-06T03:48:07;15.50;99.90
57218;DHT22;43078;52.972;6.482;2023-08-06T03:50:33;15.50;99.90
57218;DHT22;43078;52.972;6.482;2023-08-06T03:52:59;15.50;99.90
57218;DHT22;43078;52.972;6.482;2023-08-06T03:55:25;15.50;99.90
57218;DHT22;43078;52.972;6.482;2023-08-06T03:57:50;15.50;99.90
57218;DHT22;43078;52.972;6.482;2023-08-06T04:00:16;15.50;99.90
57218;DHT22;43078;52.972;6.482;2023-08-06T04:02:42;15.50;99.90
57218;DHT22;43078;52.972;6.482;2023-08-06T04:05:08;15.50;99.90
57218;DHT22;43078;52.972;6.482;2023-08-06T04:07:34;15.50;99.90
57218;DHT22;43078;52.972;6.482;2023-08-06T04:10:03;15.50;99.90
57218;DHT22;43078;52.972;6.482;2023-08-06T04:12:29;15.40;99.90
57218;DHT22;43078;52.972;6.482;2023-08-06T04:14:57;15.40;99.90
57218;DHT22;43078;52.972;6.482;2023-08-06T04:17:23;15.40;99.90
57218;DHT22;43078;52.972;6.482;2023-08-06T04:19:54;15.40;99.90
57218;DHT22;43078;52.972;6.482;2023-08-06T04:22:20;15.40;99.90
57218;DHT22;43078;52.972;6.482;2023-08-06T04:24:47;15.40;99.90
57218;DHT22;43078;52.972;6.482;2023-08-06T04:27:13;15.40;99.90
57218;DHT22;43078;52.972;6.482;2023-08-06T04:29:39;15.40;99.90
57218;DHT22;43078;52.972;6.482;2023-08-06T04:32:07;15.40;99.90
57218;DHT22;43078;52.972;6.482;2023-08-06T04:34:33;15.40;99.90
57218;DHT22;43078;52.972;6.482;2023-08-06T04:36:59;15.40;99.90
57218;DHT22;43078;52.972;6.482;2023-08-06T04:39:25;15.40;99.90
57218;DHT22;43078;52.972;6.482;2023-08-06T04:41:51;15.40;99.90
57218;DHT22;43078;52.972;6.482;2023-08-06T04:44:16;15.40;99.90
57218;DHT22;43078;52.972;6.482;2023-08-06T04:46:42;15.40;99.90
57218;DHT22;43078;52.972;6.482;2023-08-06T04:49:08;15.40;99.90
57218;DHT22;43078;52.972;6.482;2023-08-06T04:51:33;15.40;99.90
57218;DHT22;43078;52.972;6.482;2023-08-06T04:53:59;15.40;99.90
57218;DHT22;43078;52.972;6.482;2023-08-06T04:56:25;15.40;99.90
57218;DHT22;43078;52.972;6.482;2023-08-06T04:58:51;15.40;99.90
57218;DHT22;43078;52.972;6.482;2023-08-06T05:01:16;15.40;99.90
57218;DHT22;43078;52.972;6.482;2023-08-06T05:03:42;15.40;99.90
57218;DHT22;43078;52.972;6.482;2023-08-06T05:06:08;15.40;99.90
57218;DHT22;43078;52.972;6.482;2023-08-06T05:08:33;15.40;99.90
57218;DHT22;43078;52.972;6.482;2023-08-06T05:10:59;15.40;99.90
57218;DHT22;43078;52.972;6.482;2023-08-06T05:13:25;15.40;99.90
57218;DHT22;43078;52.972;6.482;2023-08-06T05:15:52;15.40;99.90
57218;DHT22;43078;52.972;6.482;2023-08-06T05:18:18;15.40;99.90
57218;DHT22;43078;52.972;6.482;2023-08-06T05:20:44;15.40;99.90
57218;DHT22;43078;52.972;6.482;2023-08-06T05:23:10;15.40;99.90
57218;DHT22;43078;52.972;6.482;2023-08-06T05:25:35;15.40;99.90
57218;DHT22;43078;52.972;6.482;2023-08-06T05:28:02;15.50;99.90
57218;DHT22;43078;52.972;6.482;2023-08-06T05:30:27;15.40;99.90
57218;DHT22;43078;52.972;6.482;2023-08-06T05:32:53;15.50;99.90
57218;DHT22;43078;52.972;6.482;2023-08-06T05:35:19;15.50;99.90
57218;DHT22;43078;52.972;6.482;2023-08-06T05:37:45;15.50;99.90
57218;DHT22;43078;52.972;6.482;2023-08-06T05:40:10;15.50;99.90
57218;DHT22;43078;52.972;6.482;2023-08-06T05:42:36;15.50;99.90
57218;DHT22;43078;52.972;6.482;2023-08-06T05:45:02;15.50;99.90
57218;DHT22;43078;52.972;6.482;2023-08-06T05:47:27;15.50;99.90
57218;DHT22;43078;52.972;6.482;2023-08-06T05:49:53;15.60;99.90
57218;DHT22;43078;52.972;6.482;2023-08-06T05:52:18;15.60;99.90
57218;DHT22;43078;52.972;6.482;2023-08-06T05:54:44;15.60;99.90
57218;DHT22;43078;52.972;6.482;2023-08-06T05:57:10;15.60;99.90
57218;DHT22;43078;52.972;6.482;2023-08-06T05:59:35;15.70;99.90
57218;DHT22;43078;52.972;6.482;2023-08-06T06:02:01;15.70;99.90
57218;DHT22;43078;52.972;6.482;2023-08-06T06:04:27;15.70;99.90
57218;DHT22;43078;52.972;6.482;2023-08-06T06:06:56;15.70;99.90
57218;DHT22;43078;52.972;6.482;2023-08-06T06:09:24;15.70;99.90
57218;DHT22;43078;52.972;6.482;2023-08-06T06:11:50;15.70;99.90
57218;DHT22;43078;52.972;6.482;2023-08-06T06:14:19;15.70;99.90
57218;DHT22;43078;52.972;6.482;2023-08-06T06:16:45;15.70;99.90
57218;DHT22;43078;52.972;6.482;2023-08-06T06:19:11;15.80;99.90
57218;DHT22;43078;52.972;6.482;2023-08-06T06:21:38;15.80;99.90
57218;DHT22;43078;52.972;6.482;2023-08-06T06:24:05;15.80;99.90
57218;DHT22;43078;52.972;6.482;2023-08-06T06:26:32;15.80;99.90
57218;DHT22;43078;52.972;6.482;2023-08-06T06:28:59;15.80;99.90
57218;DHT22;43078;52.972;6.482;2023-08-06T06:31:25;15.80;99.90
57218;DHT22;43078;52.972;6.482;2023-08-06T06:33:51;15.80;99.90
57218;DHT22;43078;52.972;6.482;2023-08-06T06:36:21;15.90;99.90
57218;DHT22;43078;52.972;6.482;2023-08-06T06:38:47;15.90;99.90
57218;DHT22;43078;52.972;6.482;2023-08-06T06:41:14;15.90;99.90
57218;DHT22;43078;52.972;6.482;2023-08-06T06:43:41;16.00;99.90
57218;DHT22;43078;52.972;6.482;2023-08-06T06:46:10;16.00;99.90
57218;DHT22;43078;52.972;6.482;2023-08-06T06:48:36;16.00;99.90
57218;DHT22;43078;52.972;6.482;2023-08-06T06:51:02;16.00;99.90
57218;DHT22;43078;52.972;6.482;2023-08-06T06:53:28;16.00;99.90
57218;DHT22;43078;52.972;6.482;2023-08-06T06:56:01;16.10;99.90
57218;DHT22;43078;52.972;6.482;2023-08-06T06:58:31;16.10;99.90
57218;DHT22;43078;52.972;6.482;2023-08-06T07:00:56;16.10;99.90
57218;DHT22;43078;52.972;6.482;2023-08-06T07:03:22;16.10;99.90
57218;DHT22;43078;52.972;6.482;2023-08-06T07:05:50;16.20;99.90
57218;DHT22;43078;52.972;6.482;2023-08-06T07:08:16;16.20;99.90
57218;DHT22;43078;52.972;6.482;2023-08-06T07:10:42;16.20;99.90
57218;DHT22;43078;52.972;6.482;2023-08-06T07:13:08;16.20;99.90
57218;DHT22;43078;52.972;6.482;2023-08-06T07:15:34;16.20;99.90
57218;DHT22;43078;52.972;6.482;2023-08-06T07:18:01;16.30;99.90
57218;DHT22;43078;52.972;6.482;2023-08-06T07:20:27;16.30;99.90
57218;DHT22;43078;52.972;6.482;2023-08-06T07:22:57;16.30;99.90
57218;DHT22;43078;52.972;6.482;2023-08-06T07:25:22;16.30;99.90
57218;DHT22;43078;52.972;6.482;2023-08-06T07:27:48;16.30;99.90
57218;DHT22;43078;52.972;6.482;2023-08-06T07:30:13;16.30;99.90
57218;DHT22;43078;52.972;6.482;2023-08-06T07:32:39;16.40;99.90
57218;DHT22;43078;52.972;6.482;2023-08-06T07:35:05;16.40;99.90
57218;DHT22;43078;52.972;6.482;2023-08-06T07:37:31;16.40;99.90
57218;DHT22;43078;52.972;6.482;2023-08-06T07:39:57;16.50;99.90
57218;DHT22;43078;52.972;6.482;2023-08-06T07:42:22;16.50;99.90
57218;DHT22;43078;52.972;6.482;2023-08-06T07:45:01;16.50;99.90
57218;DHT22;43078;52.972;6.482;2023-08-06T07:47:27;16.50;99.90
57218;DHT22;43078;52.972;6.482;2023-08-06T07:49:52;16.60;99.90
57218;DHT22;43078;52.972;6.482;2023-08-06T07:52:18;16.50;99.90
57218;DHT22;43078;52.972;6.482;2023-08-06T07:54:44;16.60;99.90
57218;DHT22;43078;52.972;6.482;2023-08-06T07:57:09;16.60;99.90
57218;DHT22;43078;52.972;6.482;2023-08-06T07:59:35;16.60;99.90
57218;DHT22;43078;52.972;6.482;2023-08-06T08:02:01;16.70;99.90
57218;DHT22;43078;52.972;6.482;2023-08-06T08:04:26;16.70;99.90
57218;DHT22;43078;52.972;6.482;2023-08-06T08:06:52;16.70;99.90
57218;DHT22;43078;52.972;6.482;2023-08-06T08:09:18;16.80;99.90
57218;DHT22;43078;52.972;6.482;2023-08-06T08:11:44;16.80;99.90
57218;DHT22;43078;52.972;6.482;2023-08-06T08:14:09;16.90;99.90
57218;DHT22;43078;52.972;6.482;2023-08-06T08:16:38;16.90;99.90
57218;DHT22;43078;52.972;6.482;2023-08-06T08:19:05;16.90;99.90
57218;DHT22;43078;52.972;6.482;2023-08-06T08:21:31;17.00;99.90
57218;DHT22;43078;52.972;6.482;2023-08-06T08:23:59;17.00;99.90
57218;DHT22;43078;52.972;6.482;2023-08-06T08:26:25;17.00;99.90
57218;DHT22;43078;52.972;6.482;2023-08-06T08:28:53;17.00;99.90
57218;DHT22;43078;52.972;6.482;2023-08-06T08:31:18;17.10;99.90
57218;DHT22;43078;52.972;6.482;2023-08-06T08:33:44;17.10;99.90
57218;DHT22;43078;52.972;6.482;2023-08-06T08:36:10;17.20;99.90
57218;DHT22;43078;52.972;6.482;2023-08-06T08:38:36;17.20;99.90
57218;DHT22;43078;52.972;6.482;2023-08-06T08:41:01;17.20;99.90
57218;DHT22;43078;52.972;6.482;2023-08-06T08:43:27;17.30;99.90
57218;DHT22;43078;52.972;6.482;2023-08-06T08:45:54;17.30;99.90
57218;DHT22;43078;52.972;6.482;2023-08-06T08:48:26;17.30;99.90
57218;DHT22;43078;52.972;6.482;2023-08-06T08:50:56;17.30;99.90
57218;DHT22;43078;52.972;6.482;2023-08-06T08:53:22;17.40;99.90
57218;DHT22;43078;52.972;6.482;2023-08-06T08:55:49;17.40;99.90
57218;DHT22;43078;52.972;6.482;2023-08-06T08:58:15;17.50;99.90
57218;DHT22;43078;52.972;6.482;2023-08-06T09:00:46;17.50;99.90
57218;DHT22;43078;52.972;6.482;2023-08-06T09:03:12;17.50;99.90
57218;DHT22;43078;52.972;6.482;2023-08-06T09:05:43;17.60;99.90
57218;DHT22;43078;52.972;6.482;2023-08-06T09:08:11;17.60;99.90
57218;DHT22;43078;52.972;6.482;2023-08-06T09:10:39;17.70;99.90
57218;DHT22;43078;52.972;6.482;2023-08-06T09:13:06;17.70;99.90
57218;DHT22;43078;52.972;6.482;2023-08-06T09:15:32;17.70;99.90
57218;DHT22;43078;52.972;6.482;2023-08-06T09:18:00;17.70;99.90
57218;DHT22;43078;52.972;6.482;2023-08-06T09:20:25;17.80;99.90
57218;DHT22;43078;52.972;6.482;2023-08-06T09:22:54;17.80;99.90
57218;DHT22;43078;52.972;6.482;2023-08-06T09:25:24;17.90;99.90
57218;DHT22;43078;52.972;6.482;2023-08-06T09:27:51;17.90;99.90
57218;DHT22;43078;52.972;6.482;2023-08-06T09:30:34;18.00;99.90
57218;DHT22;43078;52.972;6.482;2023-08-06T09:33:00;18.00;99.90
57218;DHT22;43078;52.972;6.482;2023-08-06T09:35:29;18.10;99.90
57218;DHT22;43078;52.972;6.482;2023-08-06T09:37:55;18.10;99.90
57218;DHT22;43078;52.972;6.482;2023-08-06T09:42:54;18.20;99.90
57218;DHT22;43078;52.972;6.482;2023-08-06T09:45:21;18.30;99.90
57218;DHT22;43078;52.972;6.482;2023-08-06T09:47:48;18.30;99.90
57218;DHT22;43078;52.972;6.482;2023-08-06T09:50:18;18.40;99.90
57218;DHT22;43078;52.972;6.482;2023-08-06T09:52:44;18.40;99.90
57218;DHT22;43078;52.972;6.482;2023-08-06T09:55:13;18.50;99.90
57218;DHT22;43078;52.972;6.482;2023-08-06T09:57:40;18.50;99.90
57218;DHT22;43078;52.972;6.482;2023-08-06T10:00:10;18.60;99.90
57218;DHT22;43078;52.972;6.482;2023-08-06T10:02:40;18.60;99.90
57218;DHT22;43078;52.972;6.482;2023-08-06T10:05:09;18.70;99.90
57218;DHT22;43078;52.972;6.482;2023-08-06T10:07:36;18.70;99.90
57218;DHT22;43078;52.972;6.482;2023-08-06T10:10:02;18.80;99.90
57218;DHT22;43078;52.972;6.482;2023-08-06T10:12:38;18.90;99.70
57218;DHT22;43078;52.972;6.482;2023-08-06T10:15:10;18.90;99.50
57218;DHT22;43078;52.972;6.482;2023-08-06T10:17:40;19.00;99.50
57218;DHT22;43078;52.972;6.482;2023-08-06T10:20:08;19.00;99.60
57218;DHT22;43078;52.972;6.482;2023-08-06T10:22:34;19.10;99.50
57218;DHT22;43078;52.972;6.482;2023-08-06T10:25:01;19.20;99.40
57218;DHT22;43078;52.972;6.482;2023-08-06T10:27:41;19.30;99.20
57218;DHT22;43078;52.972;6.482;2023-08-06T10:32:49;19.40;99.00
57218;DHT22;43078;52.972;6.482;2023-08-06T10:35:45;19.40;99.10
57218;DHT22;43078;52.972;6.482;2023-08-06T10:43:35;19.60;98.80
57218;DHT22;43078;52.972;6.482;2023-08-06T10:46:03;19.60;98.80
57218;DHT22;43078;52.972;6.482;2023-08-06T10:48:40;19.70;98.70
57218;DHT22;43078;52.972;6.482;2023-08-06T10:51:13;19.70;97.90
57218;DHT22;43078;52.972;6.482;2023-08-06T10:53:52;19.80;97.70
57218;DHT22;43078;52.972;6.482;2023-08-06T10:56:20;19.80;98.20
57218;DHT22;43078;52.972;6.482;2023-08-06T10:58:48;19.80;97.70
57218;DHT22;43078;52.972;6.482;2023-08-06T11:01:14;19.90;98.40
57218;DHT22;43078;52.972;6.482;2023-08-06T11:03:42;19.90;98.00
57218;DHT22;43078;52.972;6.482;2023-08-06T11:06:08;20.00;98.10
57218;DHT22;43078;52.972;6.482;2023-08-06T11:08:36;20.00;98.00
57218;DHT22;43078;52.972;6.482;2023-08-06T11:11:15;20.00;97.80
57218;DHT22;43078;52.972;6.482;2023-08-06T11:13:45;20.10;97.50
57218;DHT22;43078;52.972;6.482;2023-08-06T11:16:13;20.10;97.40
57218;DHT22;43078;52.972;6.482;2023-08-06T11:18:40;20.20;97.70
57218;DHT22;43078;52.972;6.482;2023-08-06T11:21:07;20.20;97.10
57218;DHT22;43078;52.972;6.482;2023-08-06T11:23:34;20.10;96.90
57218;DHT22;43078;52.972;6.482;2023-08-06T11:26:00;20.20;96.80
57218;DHT22;43078;52.972;6.482;2023-08-06T11:28:26;20.20;97.00
57218;DHT22;43078;52.972;6.482;2023-08-06T11:30:53;20.30;97.60
57218;DHT22;43078;52.972;6.482;2023-08-06T11:33:23;20.30;97.90
57218;DHT22;43078;52.972;6.482;2023-08-06T11:35:51;20.30;97.60
57218;DHT22;43078;52.972;6.482;2023-08-06T11:38:17;20.30;97.80
57218;DHT22;43078;52.972;6.482;2023-08-06T11:40:50;20.30;98.10
57218;DHT22;43078;52.972;6.482;2023-08-06T11:43:20;20.40;97.90
57218;DHT22;43078;52.972;6.482;2023-08-06T11:45:51;20.40;97.50
57218;DHT22;43078;52.972;6.482;2023-08-06T11:48:19;20.40;97.10
57218;DHT22;43078;52.972;6.482;2023-08-06T11:50:45;20.40;97.50
57218;DHT22;43078;52.972;6.482;2023-08-06T11:53:14;20.50;97.50
57218;DHT22;43078;52.972;6.482;2023-08-06T11:55:40;20.50;97.70
57218;DHT22;43078;52.972;6.482;2023-08-06T11:58:06;20.40;97.00
57218;DHT22;43078;52.972;6.482;2023-08-06T12:00:32;20.50;96.90
57218;DHT22;43078;52.972;6.482;2023-08-06T12:02:58;20.60;96.70
57218;DHT22;43078;52.972;6.482;2023-08-06T12:05:30;20.60;95.90
57218;DHT22;43078;52.972;6.482;2023-08-06T12:07:58;20.60;95.70
57218;DHT22;43078;52.972;6.482;2023-08-06T12:10:28;20.70;95.60
57218;DHT22;43078;52.972;6.482;2023-08-06T12:12:55;20.70;95.80
57218;DHT22;43078;52.972;6.482;2023-08-06T12:15:21;20.80;95.20
57218;DHT22;43078;52.972;6.482;2023-08-06T12:17:47;20.80;95.60
57218;DHT22;43078;52.972;6.482;2023-08-06T12:20:13;20.90;94.90
57218;DHT22;43078;52.972;6.482;2023-08-06T12:22:39;20.90;95.10
57218;DHT22;43078;52.972;6.482;2023-08-06T12:25:14;20.90;94.20
57218;DHT22;43078;52.972;6.482;2023-08-06T12:27:44;20.90;94.60
57218;DHT22;43078;52.972;6.482;2023-08-06T12:30:11;20.90;93.70
57218;DHT22;43078;52.972;6.482;2023-08-06T12:32:37;20.90;93.70
57218;DHT22;43078;52.972;6.482;2023-08-06T12:35:03;20.90;94.00
57218;DHT22;43078;52.972;6.482;2023-08-06T12:37:30;20.90;93.70
57218;DHT22;43078;52.972;6.482;2023-08-06T12:39:56;20.90;93.50
57218;DHT22;43078;52.972;6.482;2023-08-06T12:42:22;20.90;95.20
57218;DHT22;43078;52.972;6.482;2023-08-06T12:44:49;21.00;95.50
57218;DHT22;43078;52.972;6.482;2023-08-06T12:47:35;21.00;95.90
57218;DHT22;43078;52.972;6.482;2023-08-06T12:50:04;21.00;95.40
57218;DHT22;43078;52.972;6.482;2023-08-06T12:52:40;21.00;94.90
57218;DHT22;43078;52.972;6.482;2023-08-06T12:55:09;21.00;93.90
57218;DHT22;43078;52.972;6.482;2023-08-06T12:57:35;21.00;93.40
57218;DHT22;43078;52.972;6.482;2023-08-06T13:00:01;21.00;92.90
57218;DHT22;43078;52.972;6.482;2023-08-06T13:02:26;21.00;93.30
57218;DHT22;43078;52.972;6.482;2023-08-06T13:04:55;21.00;94.00
57218;DHT22;43078;52.972;6.482;2023-08-06T13:07:20;21.00;95.40
57218;DHT22;43078;52.972;6.482;2023-08-06T13:09:46;21.00;95.20
57218;DHT22;43078;52.972;6.482;2023-08-06T13:12:12;21.00;94.50
57218;DHT22;43078;52.972;6.482;2023-08-06T13:14:37;21.00;93.40
57218;DHT22;43078;52.972;6.482;2023-08-06T13:17:03;21.00;93.90
57218;DHT22;43078;52.972;6.482;2023-08-06T13:19:32;21.00;95.00
57218;DHT22;43078;52.972;6.482;2023-08-06T13:22:07;21.00;95.50
57218;DHT22;43078;52.972;6.482;2023-08-06T13:24:34;21.00;94.40
57218;DHT22;43078;52.972;6.482;2023-08-06T13:27:03;21.10;95.10
57218;DHT22;43078;52.972;6.482;2023-08-06T13:29:29;21.10;94.60
57218;DHT22;43078;52.972;6.482;2023-08-06T13:31:57;21.10;95.20
57218;DHT22;43078;52.972;6.482;2023-08-06T13:34:23;21.10;94.50
57218;DHT22;43078;52.972;6.482;2023-08-06T13:36:48;21.10;94.90
57218;DHT22;43078;52.972;6.482;2023-08-06T13:39:18;21.10;95.30
57218;DHT22;43078;52.972;6.482;2023-08-06T13:41:45;21.10;95.10
57218;DHT22;43078;52.972;6.482;2023-08-06T13:44:10;21.10;95.00
57218;DHT22;43078;52.972;6.482;2023-08-06T13:46:36;21.10;95.60
57218;DHT22;43078;52.972;6.482;2023-08-06T13:49:02;21.10;95.50
57218;DHT22;43078;52.972;6.482;2023-08-06T13:51:27;21.20;95.70
57218;DHT22;43078;52.972;6.482;2023-08-06T13:53:54;21.10;94.90
57218;DHT22;43078;52.972;6.482;2023-08-06T13:56:19;21.10;93.10
57218;DHT22;43078;52.972;6.482;2023-08-06T13:58:48;21.10;94.60
57218;DHT22;43078;52.972;6.482;2023-08-06T14:01:17;21.10;94.50
57218;DHT22;43078;52.972;6.482;2023-08-06T14:03:43;21.10;93.70
57218;DHT22;43078;52.972;6.482;2023-08-06T14:06:08;21.10;92.90
57218;DHT22;43078;52.972;6.482;2023-08-06T14:08:34;21.10;92.90
57218;DHT22;43078;52.972;6.482;2023-08-06T14:11:00;21.10;92.90
57218;DHT22;43078;52.972;6.482;2023-08-06T14:13:25;21.10;93.40
57218;DHT22;43078;52.972;6.482;2023-08-06T14:15:51;21.10;92.80
57218;DHT22;43078;52.972;6.482;2023-08-06T14:18:19;21.10;93.60
57218;DHT22;43078;52.972;6.482;2023-08-06T14:20:45;21.10;92.80
57218;DHT22;43078;52.972;6.482;2023-08-06T14:23:11;21.10;93.50
57218;DHT22;43078;52.972;6.482;2023-08-06T14:25:38;21.00;93.00
57218;DHT22;43078;52.972;6.482;2023-08-06T14:28:04;21.10;94.10
57218;DHT22;43078;52.972;6.482;2023-08-06T14:30:31;21.10;93.60
57218;DHT22;43078;52.972;6.482;2023-08-06T14:32:57;21.10;92.80
57218;DHT22;43078;52.972;6.482;2023-08-06T14:35:24;21.10;93.10
57218;DHT22;43078;52.972;6.482;2023-08-06T14:37:51;21.10;92.10
57218;DHT22;43078;52.972;6.482;2023-08-06T14:40:16;21.10;92.10
57218;DHT22;43078;52.972;6.482;2023-08-06T14:42:42;21.10;92.10
57218;DHT22;43078;52.972;6.482;2023-08-06T14:45:08;21.10;91.60
57218;DHT22;43078;52.972;6.482;2023-08-06T14:47:34;21.10;92.80
57218;DHT22;43078;52.972;6.482;2023-08-06T14:49:59;21.10;92.50
57218;DHT22;43078;52.972;6.482;2023-08-06T14:52:25;21.20;92.70
57218;DHT22;43078;52.972;6.482;2023-08-06T14:54:50;21.20;92.80
57218;DHT22;43078;52.972;6.482;2023-08-06T14:57:18;21.10;92.00
57218;DHT22;43078;52.972;6.482;2023-08-06T14:59:44;21.10;91.70
57218;DHT22;43078;52.972;6.482;2023-08-06T15:02:10;21.10;92.10
57218;DHT22;43078;52.972;6.482;2023-08-06T15:04:35;21.10;92.90
57218;DHT22;43078;52.972;6.482;2023-08-06T15:07:01;21.10;92.90
57218;DHT22;43078;52.972;6.482;2023-08-06T15:09:27;21.10;92.70
57218;DHT22;43078;52.972;6.482;2023-08-06T15:11:52;21.10;93.40
57218;DHT22;43078;52.972;6.482;2023-08-06T15:14:18;21.10;92.80
57218;DHT22;43078;52.972;6.482;2023-08-06T15:16:46;21.10;92.80
57218;DHT22;43078;52.972;6.482;2023-08-06T15:19:12;21.10;93.40
57218;DHT22;43078;52.972;6.482;2023-08-06T15:21:38;21.10;93.60
57218;DHT22;43078;52.972;6.482;2023-08-06T15:24:05;21.10;92.60
57218;DHT22;43078;52.972;6.482;2023-08-06T15:26:34;21.00;92.70
57218;DHT22;43078;52.972;6.482;2023-08-06T15:29:03;21.00;92.30
57218;DHT22;43078;52.972;6.482;2023-08-06T15:31:39;21.00;92.00
57218;DHT22;43078;52.972;6.482;2023-08-06T15:34:06;21.00;91.40
57218;DHT22;43078;52.972;6.482;2023-08-06T15:36:33;21.00;91.50
57218;DHT22;43078;52.972;6.482;2023-08-06T15:38:59;21.00;91.70
57218;DHT22;43078;52.972;6.482;2023-08-06T15:41:25;21.00;91.50
57218;DHT22;43078;52.972;6.482;2023-08-06T15:43:51;21.00;91.60